Innisfail, Canada
Current Conditions -  °F | °C
As of 1:00 PM on Tuesday 21 Oct 2014 (Local Time) from CYQF Reporting Station
Broken Clouds Broken Clouds  
Wind Chill: 54°   Ceiling: 20000
Heat Index: 54°   Visibility: 15mi
Dew Point: 39°   Wind: 5mph
Humidity: 58%   Direction: 350°N
Pressure: 29.66"   Gusts: NA
Location:  52.03°N, 113.95°W
Report Text: CYQF 211900Z 35004KT 330V040 15SM SCT100 BKN200 12/04 A2966 RMK AC3CI4 SLP055 DENSITY ALT 3500FT
Loading
Personal Weather Stations






























Interactive Weather Map
Tropical Storm Tracking
New forecast layout! Learn more

10-Day Weather Forecast

Advertisements
Track Severe Weather on mobile